»·PEaware :: N327DK KPRB-KSAN

N327DK :: KPRB-KSAN

FLIGHT INFORMATION

Flight Status: Arrived
Operator: Privately registered:
United States
More flights under this callsign
Pilot: Jeremy H. (10741)
Aircraft: Unknown
(B60T)
More flights by this aircraft type
Origin: KPRB Paso Robles Mun
United States
Destination: KSAN San Diego Intl-Lindbergh
United States
More flights between these airports :: More routes between these airports
Route: +PRB V25 VTU SXC HUBRD1
File this flight plan on PilotEdge
Remarks:
Altitude:
(Current/Filed)
23,000ft
Speed:
(Current/Filed)
290kts
Departed: 30-Apr-16 08:56 AM
Arrived: 30-Apr-16 10:02 AM
Distance/Time
Traveled:
246nm/1:06
Distance/Time
To Go:
Arrived

Flight Plot

Page will automatically refresh every two minutes.

Flight plan parsing failed; only flown route is shown


Map Options




Map Legend


Flown Route
Filed Route
Departure Airport
Arrival Airport
Navaid (VOR, NDB)
Fix

Horizontal Profiles

Position Reports

Time Latitude Longitude Heading Altitude Ground
Speed
30-Apr-16 08:33 35.670969 -120.637689 179 839ft 0kts
30-Apr-16 08:34 35.670969 -120.637689 179 839ft 0kts
30-Apr-16 08:35 35.670968 -120.637689 179 839ft 0kts
30-Apr-16 08:36 35.670968 -120.637689 179 839ft 0kts
30-Apr-16 08:37 35.670968 -120.637689 179 839ft 0kts
30-Apr-16 08:38 35.670968 -120.637689 179 839ft 0kts
30-Apr-16 08:39 35.670968 -120.637689 179 839ft 0kts
30-Apr-16 08:40 35.670760 -120.637259 88 839ft 0kts
30-Apr-16 08:41 35.670539 -120.637122 187 839ft 0kts
30-Apr-16 08:42 35.670193 -120.634522 66 839ft 5kts
30-Apr-16 08:43 35.672702 -120.632727 28 839ft 13kts
30-Apr-16 08:44 35.676229 -120.630366 28 839ft 14kts
30-Apr-16 08:45 35.677345 -120.628477 88 839ft 12kts
30-Apr-16 08:46 35.677283 -120.624596 134 839ft 13kts
30-Apr-16 08:47 35.673675 -120.621343 143 839ft 17kts
30-Apr-16 08:48 35.672155 -120.616798 177 839ft 17kts
30-Apr-16 08:49 35.667653 -120.616941 230 839ft 13kts
30-Apr-16 08:50 35.667467 -120.617976 305 839ft 5kts
30-Apr-16 08:51 35.673135 -120.623173 22 839ft 3kts
30-Apr-16 08:52 35.672955 -120.618748 89 839ft 16kts
30-Apr-16 08:53 35.669526 -120.616770 179 839ft 18kts
30-Apr-16 08:54 35.667559 -120.618160 324 839ft 25kts
30-Apr-16 08:55 35.701372 -120.631456 30 2194ft 180kts
30-Apr-16 08:56 35.672970 -120.585970 160 4162ft 227kts
30-Apr-16 08:57 35.610545 -120.576930 157 6358ft 218kts
30-Apr-16 08:58 35.557523 -120.541126 145 8864ft 216kts
30-Apr-16 08:59 35.501261 -120.499138 145 8998ft 239kts
30-Apr-16 09:00 35.445601 -120.457743 145 9820ft 224kts
30-Apr-16 09:01 35.392590 -120.418309 144 12120ft 218kts
30-Apr-16 09:02 35.338700 -120.378256 143 14619ft 237kts
30-Apr-16 09:03 35.279918 -120.334697 143 17124ft 255kts
30-Apr-16 09:04 35.216941 -120.288065 143 19629ft 271kts
30-Apr-16 09:05 35.151266 -120.239532 144 22128ft 280kts
30-Apr-16 09:06 35.077395 -120.185041 146 22986ft 344kts
30-Apr-16 09:07 34.991979 -120.122400 146 22972ft 367kts
30-Apr-16 09:08 34.903651 -120.057702 147 22962ft 371kts
30-Apr-16 09:09 34.815070 -119.992959 146 22955ft 368kts
30-Apr-16 09:10 34.728272 -119.929662 146 22949ft 359kts
30-Apr-16 09:11 34.643392 -119.867899 147 22945ft 352kts
30-Apr-16 09:12 34.559349 -119.806894 147 22936ft 350kts
30-Apr-16 09:13 34.487851 -119.731614 112 22937ft 335kts
30-Apr-16 09:14 34.436770 -119.636285 115 22933ft 337kts
30-Apr-16 09:15 34.384983 -119.541274 116 22931ft 337kts
30-Apr-16 09:16 34.333100 -119.446186 116 22931ft 338kts
30-Apr-16 09:17 34.280683 -119.350330 117 22931ft 343kts
30-Apr-16 09:18 34.227706 -119.253737 117 22931ft 344kts
30-Apr-16 09:19 34.174500 -119.156980 118 22929ft 346kts
30-Apr-16 09:20 34.120721 -119.059966 122 22927ft 349kts
30-Apr-16 09:21 34.043472 -118.987969 145 22928ft 353kts
30-Apr-16 09:22 33.963044 -118.918864 146 22926ft 358kts
30-Apr-16 09:23 33.881257 -118.848904 146 22926ft 361kts
30-Apr-16 09:24 33.799142 -118.778840 147 22926ft 361kts
30-Apr-16 09:25 33.716997 -118.708926 147 22925ft 361kts
30-Apr-16 09:26 33.634896 -118.639218 148 22935ft 360kts
30-Apr-16 09:27 33.552772 -118.569667 148 22933ft 360kts
30-Apr-16 09:28 33.470961 -118.500539 148 22931ft 360kts
30-Apr-16 09:29 33.391388 -118.427917 128 22930ft 361kts
30-Apr-16 09:30 33.361873 -118.319177 88 22932ft 342kts
30-Apr-16 09:31 33.346573 -118.206473 88 22928ft 342kts
30-Apr-16 09:32 33.333871 -118.112550 88 22925ft 342kts
30-Apr-16 09:33 33.316009 -117.981155 90 22921ft 343kts
30-Apr-16 09:34 33.300514 -117.868207 90 22763ft 338kts
30-Apr-16 09:35 33.288081 -117.778140 90 21800ft 328kts
30-Apr-16 09:36 33.273297 -117.671640 92 20127ft 317kts
30-Apr-16 09:37 33.253466 -117.571372 119 18124ft 309kts
30-Apr-16 09:38 33.197636 -117.498273 134 16129ft 284kts
30-Apr-16 09:39 33.145876 -117.433450 134 14591ft 253kts
30-Apr-16 09:40 33.086294 -117.393890 156 12596ft 241kts
30-Apr-16 09:41 33.026456 -117.360627 156 10593ft 232kts
30-Apr-16 09:42 32.968466 -117.328720 156 8590ft 226kts
30-Apr-16 09:43 32.912468 -117.298020 156 7024ft 215kts
30-Apr-16 09:44 32.858945 -117.268604 156 6985ft 208kts
30-Apr-16 09:45 32.824901 -117.216766 103 6406ft 215kts
30-Apr-16 09:46 32.812034 -117.148577 101 5146ft 205kts
30-Apr-16 09:47 32.801397 -117.088714 101 4980ft 166kts
30-Apr-16 09:48 32.790068 -117.024020 101 4990ft 214kts
30-Apr-16 09:49 32.778600 -116.957889 101 4990ft 194kts
30-Apr-16 09:50 32.768370 -116.898363 101 4983ft 176kts
30-Apr-16 09:51 32.742116 -116.852690 140 4988ft 171kts
30-Apr-16 09:52 32.702576 -116.834103 223 4978ft 159kts
30-Apr-16 09:53 32.684370 -116.882216 251 4349ft 174kts
30-Apr-16 09:54 32.672972 -116.936059 266 3583ft 165kts
30-Apr-16 09:55 32.684141 -116.986319 285 3467ft 154kts
30-Apr-16 09:56 32.694608 -117.028941 284 2499ft 129kts
30-Apr-16 09:57 32.703983 -117.067792 284 1948ft 127kts
30-Apr-16 09:58 32.712904 -117.104469 283 1512ft 118kts
30-Apr-16 09:59 32.721634 -117.140273 283 823ft 112kts
30-Apr-16 10:00 32.729859 -117.174428 283 157ft 107kts
30-Apr-16 10:01 32.734036 -117.188038 35 18ft 0kts
30-Apr-16 10:02 32.733468 -117.184485 105 18ft 13kts
30-Apr-16 10:03 32.732554 -117.179970 62 18ft 8kts
30-Apr-16 10:04 32.733074 -117.179100 48 18ft 0kts

Navigation Log

Ident Type
Flight plan parsing failed, navigation log unavailable